Terminal Aerodrome Forecast
Issued by NWS

Current Version | Previous Version | Graphics & Text | Print | Product List | Glossary On
Versions: 1 2 3 4 5 6 7 8 9 10 11 12 13 14 15 16 17 18
026
FTUS41 KILN 211740
TAFLCK
TAF
KLCK 211740Z 2118/2218 26007KT P6SM SCT040 SCT200
     FM212100 22008KT P6SM BKN045
     FM220000 19004KT P6SM SCT250
     FM221500 22011G18KT P6SM BKN250=

USA.gov is the U.S. government's official web portal to all federal, state and local government web resources and services.